createdAt,value
2022-08-09T00:04:34.347Z,972.66
2022-08-09T00:09:14.045Z,972.65
2022-08-09T00:14:17.295Z,972.64
2022-08-09T00:19:13.777Z,972.60
2022-08-09T00:24:12.714Z,972.61
2022-08-09T00:29:39.785Z,972.60
2022-08-09T00:34:13.591Z,972.62
2022-08-09T00:40:01.842Z,972.63
2022-08-09T00:44:25.538Z,972.60
2022-08-09T00:49:13.688Z,972.62
2022-08-09T00:54:12.337Z,972.62
2022-08-09T00:59:12.271Z,972.64
2022-08-09T01:04:13.194Z,972.68
2022-08-09T01:09:19.160Z,972.72
2022-08-09T01:14:12.040Z,972.73
2022-08-09T01:19:17.269Z,972.68
2022-08-09T01:24:12.943Z,972.70
2022-08-09T01:29:11.872Z,972.73
2022-08-09T01:34:11.794Z,972.72
2022-08-09T01:39:11.789Z,972.78
2022-08-09T01:44:11.676Z,972.85
2022-08-09T01:49:12.679Z,972.86
2022-08-09T01:54:11.574Z,972.90
2022-08-09T01:59:11.505Z,972.89
2022-08-09T02:04:11.438Z,972.88
2022-08-09T02:09:11.423Z,972.88
2022-08-09T02:14:15.836Z,972.89
2022-08-09T02:19:12.255Z,972.94
2022-08-09T02:24:11.196Z,972.88
2022-08-09T02:29:12.144Z,972.88
2022-08-09T02:34:13.774Z,972.93
2022-08-09T02:39:14.591Z,973.00
2022-08-09T02:44:19.880Z,972.99
2022-08-09T02:49:11.857Z,973.03
2022-08-09T02:54:10.795Z,972.98
2022-08-09T02:59:13.826Z,972.92
2022-08-09T03:04:16.770Z,972.94
2022-08-09T03:09:11.597Z,972.98
2022-08-09T03:14:10.558Z,972.93
2022-08-09T03:19:14.519Z,973.01
2022-08-09T03:24:11.428Z,973.02
2022-08-09T03:29:13.522Z,973.04
2022-08-09T03:34:11.343Z,972.99
2022-08-09T03:39:10.294Z,972.96
2022-08-09T03:44:10.184Z,972.91
2022-08-09T03:49:10.133Z,973.00
2022-08-09T03:54:11.128Z,972.98
2022-08-09T03:59:17.238Z,973.07
2022-08-09T04:04:14.693Z,973.15
2022-08-09T04:09:13.648Z,973.18
2022-08-09T04:14:53.710Z,973.16
2022-08-09T04:19:11.101Z,973.20
2022-08-09T04:24:10.668Z,973.18
2022-08-09T04:29:13.496Z,973.24
2022-08-09T04:34:10.541Z,973.24
2022-08-09T04:39:09.501Z,973.32
2022-08-09T04:44:11.098Z,973.33
2022-08-09T04:49:09.348Z,973.35
2022-08-09T04:54:10.264Z,973.38
2022-08-09T04:59:13.190Z,973.39
2022-08-09T05:04:10.220Z,973.47
2022-08-09T05:09:09.086Z,973.48
2022-08-09T05:14:09.018Z,973.54
2022-08-09T05:19:08.948Z,973.53
2022-08-09T05:24:09.160Z,973.59
2022-08-09T05:29:17.300Z,973.62
2022-08-09T05:34:16.916Z,973.63
2022-08-09T05:39:09.717Z,973.71
2022-08-09T05:44:08.651Z,973.77
2022-08-09T05:49:33.893Z,973.75
2022-08-09T05:54:09.502Z,973.72
2022-08-09T05:59:08.432Z,973.74
2022-08-09T06:04:08.437Z,973.74
2022-08-09T06:09:23.133Z,973.77
2022-08-09T06:14:09.242Z,973.77
2022-08-09T06:19:08.189Z,973.79
2022-08-09T06:24:08.124Z,973.86
2022-08-09T06:29:08.058Z,973.85
2022-08-09T06:34:09.492Z,973.91
2022-08-09T06:39:09.153Z,973.97
2022-08-09T06:44:07.890Z,974.01
2022-08-09T06:49:07.822Z,974.04
2022-08-09T06:54:09.112Z,974.06
2022-08-09T07:00:49.735Z,974.08
2022-08-09T07:04:10.366Z,974.09
2022-08-09T07:09:56.502Z,974.06
2022-08-09T07:14:08.820Z,974.01
2022-08-09T07:19:07.773Z,974.05
2022-08-09T07:24:07.373Z,974.06
2022-08-09T07:29:13.116Z,974.08
2022-08-09T07:34:08.260Z,974.09
2022-08-09T07:39:11.930Z,974.12
2022-08-09T07:44:08.139Z,974.06
2022-08-09T07:49:07.109Z,974.12
2022-08-09T07:54:08.814Z,974.10
2022-08-09T07:59:12.483Z,974.13
2022-08-09T08:04:10.459Z,974.15
2022-08-09T08:09:18.177Z,974.16
2022-08-09T08:14:07.755Z,974.17
2022-08-09T08:19:06.725Z,974.17
2022-08-09T08:24:12.202Z,974.20
2022-08-09T08:29:07.639Z,974.21
2022-08-09T08:34:06.561Z,974.24
2022-08-09T08:39:06.568Z,974.26
2022-08-09T08:44:06.385Z,974.17
2022-08-09T08:49:06.404Z,974.20
2022-08-09T08:54:06.265Z,974.29
2022-08-09T08:59:18.711Z,974.29
2022-08-09T09:04:07.147Z,974.20
2022-08-09T09:09:06.722Z,974.27
2022-08-09T09:14:07.040Z,974.18
2022-08-09T09:19:37.191Z,974.21
2022-08-09T09:24:10.555Z,974.20
2022-08-09T09:29:11.181Z,974.26
2022-08-09T09:34:06.788Z,974.17
2022-08-09T09:39:05.907Z,974.20
2022-08-09T09:44:11.981Z,974.20
2022-08-09T09:49:06.613Z,974.07
2022-08-09T09:54:17.113Z,974.02
2022-08-09T09:59:06.498Z,974.05
2022-08-09T10:04:08.895Z,974.01
2022-08-09T10:09:21.774Z,974.06
2022-08-09T10:14:07.060Z,974.04
2022-08-09T10:19:05.305Z,974.05
2022-08-09T10:24:05.209Z,973.98
2022-08-09T10:29:34.833Z,973.93
2022-08-09T10:34:18.883Z,973.97
2022-08-09T10:39:16.041Z,973.93
2022-08-09T10:44:05.989Z,973.91
2022-08-09T10:49:04.897Z,973.87
2022-08-09T10:54:05.185Z,973.86
2022-08-09T10:59:04.783Z,973.82
2022-08-09T11:04:04.897Z,973.88
2022-08-09T11:09:15.721Z,973.90
2022-08-09T11:14:05.614Z,973.73
2022-08-09T11:19:09.762Z,973.78
2022-08-09T11:24:05.520Z,973.75
2022-08-09T11:29:04.440Z,973.71
2022-08-09T11:34:04.392Z,973.72
2022-08-09T11:39:04.350Z,973.62
2022-08-09T11:44:04.297Z,973.59
2022-08-09T11:49:05.127Z,973.72
2022-08-09T11:54:08.190Z,973.58
2022-08-09T11:59:05.089Z,973.67
2022-08-09T12:04:04.106Z,973.67
2022-08-09T12:09:04.009Z,973.63
2022-08-09T12:14:09.479Z,973.59
2022-08-09T12:19:04.866Z,973.71
2022-08-09T12:24:09.606Z,973.60
2022-08-09T12:29:29.814Z,973.58
2022-08-09T12:34:04.678Z,973.50
2022-08-09T12:39:04.427Z,973.41
2022-08-09T12:44:05.198Z,973.47
2022-08-09T12:49:03.588Z,973.29
2022-08-09T12:54:03.457Z,973.38
2022-08-09T12:59:03.430Z,973.24
2022-08-09T13:04:03.320Z,973.26
2022-08-09T13:09:03.288Z,973.28
2022-08-09T13:14:36.884Z,973.28
2022-08-09T13:19:04.136Z,973.26
2022-08-09T13:24:16.340Z,973.19
2022-08-09T13:29:04.070Z,973.16
2022-08-09T13:34:02.988Z,973.16
2022-08-09T13:41:19.428Z,973.13
2022-08-09T13:44:05.511Z,973.12
2022-08-09T13:49:02.806Z,973.09
2022-08-09T13:54:02.769Z,973.08
2022-08-09T13:59:02.685Z,973.16
2022-08-09T14:04:11.150Z,973.14
2022-08-09T14:09:03.864Z,973.06
2022-08-09T14:14:24.209Z,973.13
2022-08-09T14:19:03.512Z,973.14
2022-08-09T14:24:10.516Z,973.03
2022-08-09T14:29:03.409Z,973.16
2022-08-09T14:34:04.346Z,973.12
2022-08-09T14:39:08.231Z,973.14
2022-08-09T14:44:03.157Z,973.05
2022-08-09T14:49:02.123Z,973.12
2022-08-09T14:54:02.048Z,973.07
2022-08-09T14:59:02.238Z,973.07
2022-08-09T15:04:01.965Z,973.02
2022-08-09T15:09:01.946Z,973.07
2022-08-09T15:14:04.848Z,973.08
2022-08-09T15:19:15.804Z,973.06
2022-08-09T15:24:12.171Z,972.96
2022-08-09T15:29:04.556Z,973.08
2022-08-09T15:34:32.420Z,972.98
2022-08-09T15:39:02.522Z,972.97
2022-08-09T15:44:02.013Z,972.92
2022-08-09T15:49:20.663Z,972.90
2022-08-09T15:54:07.986Z,972.88
2022-08-09T15:59:02.553Z,972.91
2022-08-09T16:04:01.269Z,972.95
2022-08-09T16:09:04.766Z,972.89
2022-08-09T16:14:02.681Z,972.88
2022-08-09T16:19:02.033Z,972.84
2022-08-09T16:24:02.198Z,972.78
2022-08-09T16:29:05.846Z,972.82
2022-08-09T16:34:04.056Z,972.83
2022-08-09T16:39:00.758Z,972.77
2022-08-09T16:44:00.725Z,972.80
2022-08-09T16:49:18.670Z,972.84
2022-08-09T16:54:25.987Z,972.86
2022-08-09T16:59:06.916Z,972.83
2022-08-09T17:04:01.480Z,972.82
2022-08-09T17:09:12.105Z,972.76
2022-08-09T17:14:02.197Z,972.80
2022-08-09T17:19:00.268Z,972.87
2022-08-09T17:24:26.867Z,972.85
2022-08-09T17:29:01.214Z,972.93
2022-08-09T17:34:00.125Z,972.95
2022-08-09T17:39:00.076Z,973.01
2022-08-09T17:44:41.728Z,973.07
2022-08-09T17:49:00.947Z,973.13
2022-08-09T17:53:59.857Z,973.22
2022-08-09T17:58:59.939Z,973.21
2022-08-09T18:03:59.729Z,973.20
2022-08-09T18:08:59.687Z,973.21
2022-08-09T18:14:09.429Z,973.24
2022-08-09T18:19:03.524Z,973.33
2022-08-09T18:24:09.448Z,973.30
2022-08-09T18:30:38.041Z,973.30
2022-08-09T18:34:00.390Z,973.33
2022-08-09T18:39:02.614Z,973.31
2022-08-09T18:43:59.226Z,973.39
2022-08-09T18:49:02.008Z,973.42
2022-08-09T18:54:01.888Z,973.46
2022-08-09T18:59:01.148Z,973.52
2022-08-09T19:04:06.219Z,973.54
2022-08-09T19:09:02.444Z,973.55
2022-08-09T19:14:00.267Z,973.67
2022-08-09T19:19:26.180Z,973.67
2022-08-09T19:24:39.668Z,973.72
2022-08-09T19:29:01.901Z,973.72
2022-08-09T19:33:58.613Z,973.69
2022-08-09T19:38:58.586Z,973.74
2022-08-09T19:44:02.661Z,973.69
2022-08-09T19:49:02.020Z,973.72
2022-08-09T19:53:58.370Z,973.75
2022-08-09T19:59:39.326Z,973.79
2022-08-09T20:04:17.100Z,973.90
2022-08-09T20:08:59.535Z,973.87
2022-08-09T20:13:58.242Z,973.85
2022-08-09T20:19:42.639Z,973.88
2022-08-09T20:23:59.012Z,973.98
2022-08-09T20:28:57.954Z,974.06
2022-08-09T20:33:58.493Z,974.02
2022-08-09T20:39:29.069Z,974.04
2022-08-09T20:43:58.747Z,974.08
2022-08-09T20:48:57.663Z,974.10
2022-08-09T20:53:57.626Z,974.12
2022-08-09T20:58:58.811Z,974.18
2022-08-09T21:05:48.438Z,974.18
2022-08-09T21:08:58.433Z,974.14
2022-08-09T21:13:59.272Z,974.19
2022-08-09T21:19:16.942Z,974.19
2022-08-09T21:24:02.109Z,974.20
2022-08-09T21:28:57.299Z,974.19
2022-08-09T21:33:57.114Z,974.17
2022-08-09T21:38:58.605Z,974.20
2022-08-09T21:43:58.187Z,974.16
2022-08-09T21:48:57.031Z,974.21
2022-08-09T21:53:56.895Z,974.16
2022-08-09T21:58:56.808Z,974.16
2022-08-09T22:03:59.210Z,974.16
2022-08-09T22:08:56.656Z,974.14
2022-08-09T22:13:56.701Z,974.18
2022-08-09T22:18:56.593Z,974.15
2022-08-09T22:24:00.092Z,974.12
2022-08-09T22:28:57.415Z,974.10
2022-08-09T22:33:56.744Z,974.09
2022-08-09T22:38:56.299Z,974.09
2022-08-09T22:44:03.683Z,974.08
2022-08-09T22:49:01.875Z,974.10
2022-08-09T22:54:02.211Z,974.09
2022-08-09T22:58:57.042Z,974.09
2022-08-09T23:04:06.121Z,974.12
2022-08-09T23:08:57.110Z,974.07
2022-08-09T23:13:55.860Z,974.04
2022-08-09T23:18:55.808Z,974.05
2022-08-09T23:24:05.423Z,974.00
2022-08-09T23:28:56.661Z,973.97
2022-08-09T23:33:55.573Z,973.98
2022-08-09T23:38:55.528Z,973.96
2022-08-09T23:43:55.460Z,973.95
2022-08-09T23:48:55.407Z,973.94
2022-08-09T23:54:01.984Z,973.89
2022-08-09T23:58:56.287Z,973.93
